<?xml version='1.0' encoding='UTF-8'?><gpx version="1.1" creator="JPX - https://github.com/jenetics/jpx" xmlns="http://www.topografix.com/GPX/1/1"><trk><trkseg><trkpt lat="40.8940005" lon="14.2878246"><ele>80.0</ele><time>2026-03-27T11:58:28.145Z</time></trkpt><trkpt lat="40.8938383" lon="14.2878383"><ele>80.0</ele><time>2026-03-27T11:58:38.681Z</time></trkpt><trkpt lat="40.893845" lon="14.2879617"><ele>80.0</ele><time>2026-03-27T11:58:42.68Z</time></trkpt><trkpt lat="40.8939667" lon="14.2877183"><ele>80.0</ele><time>2026-03-27T11:58:51.21Z</time></trkpt><trkpt lat="40.8939217" lon="14.2876417"><ele>80.0</ele><time>2026-03-27T11:58:57.212Z</time></trkpt><trkpt lat="40.8938983" lon="14.2875367"><ele>80.0</ele><time>2026-03-27T11:59:00.21Z</time></trkpt><trkpt lat="40.8938817" lon="14.287455"><ele>80.0</ele><time>2026-03-27T11:59:02.211Z</time></trkpt><trkpt lat="40.89386" lon="14.287365"><ele>80.0</ele><time>2026-03-27T11:59:04.211Z</time></trkpt><trkpt lat="40.8938233" lon="14.2872783"><ele>80.0</ele><time>2026-03-27T11:59:06.215Z</time></trkpt><trkpt lat="40.893785" lon="14.28718"><ele>80.0</ele><time>2026-03-27T11:59:09.21Z</time></trkpt><trkpt lat="40.893765" lon="14.2870717"><ele>80.0</ele><time>2026-03-27T11:59:12.21Z</time></trkpt><trkpt lat="40.8937533" lon="14.286965"><ele>80.0</ele><time>2026-03-27T11:59:14.211Z</time></trkpt><trkpt lat="40.8937267" lon="14.2868833"><ele>80.0</ele><time>2026-03-27T11:59:16.21Z</time></trkpt><trkpt lat="40.893705" lon="14.2867917"><ele>80.0</ele><time>2026-03-27T11:59:18.212Z</time></trkpt><trkpt lat="40.8936683" lon="14.2867083"><ele>80.0</ele><time>2026-03-27T11:59:20.211Z</time></trkpt><trkpt lat="40.8936367" lon="14.2866283"><ele>80.0</ele><time>2026-03-27T11:59:22.212Z</time></trkpt><trkpt lat="40.893605" lon="14.2865533"><ele>80.0</ele><time>2026-03-27T11:59:24.212Z</time></trkpt><trkpt lat="40.89359" lon="14.2864667"><ele>80.0</ele><time>2026-03-27T11:59:26.212Z</time></trkpt><trkpt lat="40.8935567" lon="14.2863867"><ele>80.0</ele><time>2026-03-27T11:59:28.212Z</time></trkpt><trkpt lat="40.8935267" lon="14.28631"><ele>80.0</ele><time>2026-03-27T11:59:30.211Z</time></trkpt><trkpt lat="40.8935283" lon="14.2862217"><ele>80.0</ele><time>2026-03-27T11:59:32.211Z</time></trkpt><trkpt lat="40.8935867" lon="14.2861667"><ele>80.0</ele><time>2026-03-27T11:59:35.216Z</time></trkpt><trkpt lat="40.89365" lon="14.2861183"><ele>80.0</ele><time>2026-03-27T11:59:38.212Z</time></trkpt><trkpt lat="40.8937317" lon="14.2860833"><ele>80.16666666666667</ele><time>2026-03-27T11:59:41.212Z</time></trkpt><trkpt lat="40.8938" lon="14.2860833"><ele>80.33333333333334</ele><time>2026-03-27T11:59:43.211Z</time></trkpt><trkpt lat="40.8938867" lon="14.2860733"><ele>80.5</ele><time>2026-03-27T11:59:46.212Z</time></trkpt><trkpt lat="40.8939633" lon="14.286095"><ele>80.66666666666667</ele><time>2026-03-27T11:59:48.211Z</time></trkpt><trkpt lat="40.894035" lon="14.28613"><ele>80.83333333333333</ele><time>2026-03-27T11:59:50.212Z</time></trkpt><trkpt lat="40.894105" lon="14.2861533"><ele>81.0</ele><time>2026-03-27T11:59:52.212Z</time></trkpt><trkpt lat="40.89418" lon="14.2861667"><ele>81.0</ele><time>2026-03-27T11:59:54.214Z</time></trkpt><trkpt lat="40.894245" lon="14.2861667"><ele>81.0</ele><time>2026-03-27T11:59:56.213Z</time></trkpt><trkpt lat="40.8943233" lon="14.2861783"><ele>81.0</ele><time>2026-03-27T11:59:58.211Z</time></trkpt><trkpt lat="40.8944067" lon="14.2861833"><ele>81.0</ele><time>2026-03-27T12:00:00.211Z</time></trkpt><trkpt lat="40.8944833" lon="14.286185"><ele>81.0</ele><time>2026-03-27T12:00:02.213Z</time></trkpt><trkpt lat="40.894555" lon="14.286215"><ele>81.0</ele><time>2026-03-27T12:00:04.21Z</time></trkpt><trkpt lat="40.8946233" lon="14.28623"><ele>81.0</ele><time>2026-03-27T12:00:06.213Z</time></trkpt><trkpt lat="40.89473" lon="14.2862833"><ele>80.8</ele><time>2026-03-27T12:00:13.213Z</time></trkpt><trkpt lat="40.8948417" lon="14.2862867"><ele>80.6</ele><time>2026-03-27T12:00:16.211Z</time></trkpt><trkpt lat="40.8949233" lon="14.2862817"><ele>80.4</ele><time>2026-03-27T12:00:17.212Z</time></trkpt><trkpt lat="40.8949983" lon="14.28631"><ele>80.2</ele><time>2026-03-27T12:00:18.21Z</time></trkpt><trkpt lat="40.895105" lon="14.2863167"><ele>80.0</ele><time>2026-03-27T12:00:20.21Z</time></trkpt><trkpt lat="40.8951967" lon="14.2863283"><ele>79.66666666666667</ele><time>2026-03-27T12:00:22.211Z</time></trkpt><trkpt lat="40.89531" lon="14.2863533"><ele>79.33333333333334</ele><time>2026-03-27T12:00:24.212Z</time></trkpt><trkpt lat="40.8954" lon="14.2863683"><ele>79.0</ele><time>2026-03-27T12:00:26.212Z</time></trkpt><trkpt lat="40.8954717" lon="14.2863667"><ele>78.66666666666667</ele><time>2026-03-27T12:00:28.211Z</time></trkpt><trkpt lat="40.89555" lon="14.2863717"><ele>78.33333333333333</ele><time>2026-03-27T12:00:30.212Z</time></trkpt><trkpt lat="40.8956417" lon="14.2863683"><ele>78.0</ele><time>2026-03-27T12:00:32.212Z</time></trkpt><trkpt lat="40.895725" lon="14.2863667"><ele>78.0</ele><time>2026-03-27T12:00:34.21Z</time></trkpt><trkpt lat="40.8958117" lon="14.2863667"><ele>78.0</ele><time>2026-03-27T12:00:36.211Z</time></trkpt><trkpt lat="40.8958983" lon="14.28636"><ele>78.0</ele><time>2026-03-27T12:00:38.212Z</time></trkpt><trkpt lat="40.89598" lon="14.2863433"><ele>78.0</ele><time>2026-03-27T12:00:40.212Z</time></trkpt><trkpt lat="40.89607" lon="14.286345"><ele>78.0</ele><time>2026-03-27T12:00:42.212Z</time></trkpt><trkpt lat="40.8961567" lon="14.286345"><ele>78.0</ele><time>2026-03-27T12:00:44.214Z</time></trkpt><trkpt lat="40.89624" lon="14.28636"><ele>78.33333333333333</ele><time>2026-03-27T12:00:46.211Z</time></trkpt><trkpt lat="40.89633" lon="14.2864"><ele>78.66666666666667</ele><time>2026-03-27T12:00:48.212Z</time></trkpt><trkpt lat="40.89641" lon="14.2864367"><ele>79.0</ele><time>2026-03-27T12:00:50.214Z</time></trkpt><trkpt lat="40.8964817" lon="14.2864517"><ele>79.33333333333334</ele><time>2026-03-27T12:00:52.211Z</time></trkpt><trkpt lat="40.8965533" lon="14.28644"><ele>79.66666666666667</ele><time>2026-03-27T12:00:55.212Z</time></trkpt><trkpt lat="40.8966117" lon="14.286405"><ele>80.0</ele><time>2026-03-27T12:00:57.21Z</time></trkpt><trkpt lat="40.8966683" lon="14.2863483"><ele>80.0</ele><time>2026-03-27T12:01:00.212Z</time></trkpt><trkpt lat="40.8967117" lon="14.28628"><ele>80.0</ele><time>2026-03-27T12:01:03.21Z</time></trkpt><trkpt lat="40.89677" lon="14.2862283"><ele>80.0</ele><time>2026-03-27T12:01:06.214Z</time></trkpt><trkpt lat="40.8968467" lon="14.2861617"><ele>80.0</ele><time>2026-03-27T12:01:09.211Z</time></trkpt><trkpt lat="40.8968967" lon="14.28611"><ele>80.0</ele><time>2026-03-27T12:01:11.212Z</time></trkpt><trkpt lat="40.8969717" lon="14.2860483"><ele>80.0</ele><time>2026-03-27T12:01:13.213Z</time></trkpt><trkpt lat="40.89703" lon="14.2859767"><ele>80.16666666666667</ele><time>2026-03-27T12:01:15.213Z</time></trkpt><trkpt lat="40.897075" lon="14.2859167"><ele>80.33333333333334</ele><time>2026-03-27T12:01:17.212Z</time></trkpt><trkpt lat="40.8971333" lon="14.285855"><ele>80.5</ele><time>2026-03-27T12:01:19.211Z</time></trkpt><trkpt lat="40.8971933" lon="14.2857967"><ele>80.66666666666667</ele><time>2026-03-27T12:01:21.212Z</time></trkpt><trkpt lat="40.8972517" lon="14.285715"><ele>80.83333333333333</ele><time>2026-03-27T12:01:23.212Z</time></trkpt><trkpt lat="40.89729" lon="14.2856417"><ele>81.0</ele><time>2026-03-27T12:01:25.212Z</time></trkpt><trkpt lat="40.8973317" lon="14.2855367"><ele>81.0</ele><time>2026-03-27T12:01:29.212Z</time></trkpt><trkpt lat="40.8973717" lon="14.2854667"><ele>81.0</ele><time>2026-03-27T12:01:31.211Z</time></trkpt><trkpt lat="40.8974167" lon="14.2853867"><ele>81.0</ele><time>2026-03-27T12:01:33.213Z</time></trkpt><trkpt lat="40.8974617" lon="14.2853217"><ele>81.0</ele><time>2026-03-27T12:01:35.213Z</time></trkpt><trkpt lat="40.89752" lon="14.2852333"><ele>81.0</ele><time>2026-03-27T12:01:38.21Z</time></trkpt><trkpt lat="40.8975683" lon="14.285145"><ele>81.0</ele><time>2026-03-27T12:01:41.213Z</time></trkpt><trkpt lat="40.89762" lon="14.2850683"><ele>80.83333333333333</ele><time>2026-03-27T12:01:44.212Z</time></trkpt><trkpt lat="40.8976583" lon="14.2849967"><ele>80.66666666666667</ele><time>2026-03-27T12:01:46.215Z</time></trkpt><trkpt lat="40.8977117" lon="14.2849183"><ele>80.5</ele><time>2026-03-27T12:01:49.212Z</time></trkpt><trkpt lat="40.8977667" lon="14.2848367"><ele>80.33333333333334</ele><time>2026-03-27T12:01:52.212Z</time></trkpt><trkpt lat="40.89781" lon="14.284735"><ele>80.16666666666667</ele><time>2026-03-27T12:01:55.211Z</time></trkpt><trkpt lat="40.8978617" lon="14.2846683"><ele>80.0</ele><time>2026-03-27T12:01:58.215Z</time></trkpt><trkpt lat="40.8979383" lon="14.28462"><ele>79.71428571428571</ele><time>2026-03-27T12:02:01.213Z</time></trkpt><trkpt lat="40.8979733" lon="14.2845433"><ele>79.42857142857143</ele><time>2026-03-27T12:02:03.215Z</time></trkpt><trkpt lat="40.8980333" lon="14.2845117"><ele>79.14285714285714</ele><time>2026-03-27T12:02:06.215Z</time></trkpt><trkpt lat="40.8980983" lon="14.28452"><ele>78.85714285714286</ele><time>2026-03-27T12:02:09.213Z</time></trkpt><trkpt lat="40.8981717" lon="14.2845467"><ele>78.57142857142857</ele><time>2026-03-27T12:02:13.215Z</time></trkpt><trkpt lat="40.898235" lon="14.2845717"><ele>78.28571428571429</ele><time>2026-03-27T12:02:16.214Z</time></trkpt><trkpt lat="40.8982933" lon="14.2846467"><ele>78.0</ele><time>2026-03-27T12:02:20.213Z</time></trkpt><trkpt lat="40.8983367" lon="14.2847483"><ele>78.28571428571429</ele><time>2026-03-27T12:02:23.214Z</time></trkpt><trkpt lat="40.8983617" lon="14.2848283"><ele>78.57142857142857</ele><time>2026-03-27T12:02:25.215Z</time></trkpt><trkpt lat="40.8983983" lon="14.2848967"><ele>78.85714285714286</ele><time>2026-03-27T12:02:27.212Z</time></trkpt><trkpt lat="40.8984733" lon="14.2849633"><ele>79.14285714285714</ele><time>2026-03-27T12:02:30.214Z</time></trkpt><trkpt lat="40.8985267" lon="14.2850133"><ele>79.42857142857143</ele><time>2026-03-27T12:02:32.215Z</time></trkpt><trkpt lat="40.898585" lon="14.285065"><ele>79.71428571428571</ele><time>2026-03-27T12:02:35.214Z</time></trkpt><trkpt lat="40.898635" lon="14.285145"><ele>80.0</ele><time>2026-03-27T12:02:37.215Z</time></trkpt><trkpt lat="40.898685" lon="14.2852083"><ele>80.5</ele><time>2026-03-27T12:02:39.213Z</time></trkpt><trkpt lat="40.8987617" lon="14.2852717"><ele>81.0</ele><time>2026-03-27T12:02:42.213Z</time></trkpt><trkpt lat="40.89885" lon="14.2852983"><ele>81.5</ele><time>2026-03-27T12:02:45.213Z</time></trkpt><trkpt lat="40.89893" lon="14.285315"><ele>82.0</ele><time>2026-03-27T12:02:47.213Z</time></trkpt><trkpt lat="40.8990067" lon="14.2853533"><ele>82.5</ele><time>2026-03-27T12:02:49.213Z</time></trkpt><trkpt lat="40.8990883" lon="14.2854"><ele>83.0</ele><time>2026-03-27T12:02:51.213Z</time></trkpt><trkpt lat="40.89917" lon="14.2854533"><ele>83.2</ele><time>2026-03-27T12:02:53.214Z</time></trkpt><trkpt lat="40.899265" lon="14.2854983"><ele>83.4</ele><time>2026-03-27T12:02:55.215Z</time></trkpt><trkpt lat="40.8993467" lon="14.2855367"><ele>83.60000000000001</ele><time>2026-03-27T12:02:57.213Z</time></trkpt><trkpt lat="40.89944" lon="14.28557"><ele>83.80000000000001</ele><time>2026-03-27T12:02:59.214Z</time></trkpt><trkpt lat="40.8995433" lon="14.2856317"><ele>84.0</ele><time>2026-03-27T12:03:01.213Z</time></trkpt><trkpt lat="40.899645" lon="14.2856783"><ele>84.0</ele><time>2026-03-27T12:03:03.214Z</time></trkpt><trkpt lat="40.89975" lon="14.2857333"><ele>84.0</ele><time>2026-03-27T12:03:05.215Z</time></trkpt><trkpt lat="40.899845" lon="14.2857983"><ele>84.0</ele><time>2026-03-27T12:03:07.215Z</time></trkpt><trkpt lat="40.8999367" lon="14.2858567"><ele>84.0</ele><time>2026-03-27T12:03:09.213Z</time></trkpt><trkpt lat="40.9000383" lon="14.2858983"><ele>84.0</ele><time>2026-03-27T12:03:11.214Z</time></trkpt><trkpt lat="40.9001367" lon="14.2859317"><ele>84.4</ele><time>2026-03-27T12:03:13.216Z</time></trkpt><trkpt lat="40.9002367" lon="14.285965"><ele>84.80000000000001</ele><time>2026-03-27T12:03:15.213Z</time></trkpt><trkpt lat="40.9003433" lon="14.28599"><ele>85.19999999999999</ele><time>2026-03-27T12:03:17.213Z</time></trkpt><trkpt lat="40.9004433" lon="14.286"><ele>85.6</ele><time>2026-03-27T12:03:19.215Z</time></trkpt><trkpt lat="40.90052" lon="14.2859783"><ele>86.0</ele><time>2026-03-27T12:03:21.212Z</time></trkpt><trkpt lat="40.9006017" lon="14.28596"><ele>86.0</ele><time>2026-03-27T12:03:23.214Z</time></trkpt><trkpt lat="40.900685" lon="14.285935"><ele>86.0</ele><time>2026-03-27T12:03:25.216Z</time></trkpt><trkpt lat="40.9007683" lon="14.2859067"><ele>86.0</ele><time>2026-03-27T12:03:27.213Z</time></trkpt><trkpt lat="40.9008733" lon="14.2859067"><ele>86.0</ele><time>2026-03-27T12:03:29.215Z</time></trkpt><trkpt lat="40.9009333" lon="14.2859333"><ele>86.0</ele><time>2026-03-27T12:03:30.213Z</time></trkpt><trkpt lat="40.9010317" lon="14.2859433"><ele>86.0</ele><time>2026-03-27T12:03:32.215Z</time></trkpt><trkpt lat="40.901125" lon="14.2859233"><ele>85.83333333333334</ele><time>2026-03-27T12:03:34.215Z</time></trkpt><trkpt lat="40.9012133" lon="14.2858933"><ele>85.66666666666667</ele><time>2026-03-27T12:03:36.214Z</time></trkpt><trkpt lat="40.901295" lon="14.2858567"><ele>85.5</ele><time>2026-03-27T12:03:38.212Z</time></trkpt><trkpt lat="40.9013783" lon="14.2858317"><ele>85.33333333333333</ele><time>2026-03-27T12:03:40.212Z</time></trkpt><trkpt lat="40.9014667" lon="14.2858167"><ele>85.16666666666666</ele><time>2026-03-27T12:03:42.214Z</time></trkpt><trkpt lat="40.901535" lon="14.2857833"><ele>85.0</ele><time>2026-03-27T12:03:44.212Z</time></trkpt><trkpt lat="40.9016" lon="14.285745"><ele>85.0</ele><time>2026-03-27T12:03:46.215Z</time></trkpt><trkpt lat="40.90167" lon="14.2857117"><ele>85.0</ele><time>2026-03-27T12:03:48.215Z</time></trkpt><trkpt lat="40.9017517" lon="14.2856733"><ele>85.0</ele><time>2026-03-27T12:03:50.214Z</time></trkpt><trkpt lat="40.901845" lon="14.2856417"><ele>85.0</ele><time>2026-03-27T12:03:52.213Z</time></trkpt><trkpt lat="40.9019367" lon="14.2856133"><ele>85.0</ele><time>2026-03-27T12:03:54.215Z</time></trkpt><trkpt lat="40.9020167" lon="14.2856133"><ele>85.0</ele><time>2026-03-27T12:03:56.213Z</time></trkpt><trkpt lat="40.902095" lon="14.285615"><ele>85.16666666666666</ele><time>2026-03-27T12:03:59.216Z</time></trkpt><trkpt lat="40.902165" lon="14.2855967"><ele>85.33333333333333</ele><time>2026-03-27T12:04:01.214Z</time></trkpt><trkpt lat="40.902245" lon="14.2855767"><ele>85.5</ele><time>2026-03-27T12:04:04.214Z</time></trkpt><trkpt lat="40.9023283" lon="14.285575"><ele>85.66666666666667</ele><time>2026-03-27T12:04:08.215Z</time></trkpt><trkpt lat="40.9024217" lon="14.2855583"><ele>85.83333333333334</ele><time>2026-03-27T12:04:11.215Z</time></trkpt><trkpt lat="40.9024883" lon="14.28554"><ele>86.0</ele><time>2026-03-27T12:04:13.215Z</time></trkpt><trkpt lat="40.9025567" lon="14.2855183"><ele>85.66666666666667</ele><time>2026-03-27T12:04:15.215Z</time></trkpt><trkpt lat="40.9026367" lon="14.2855"><ele>85.33333333333334</ele><time>2026-03-27T12:04:17.215Z</time></trkpt><trkpt lat="40.9027233" lon="14.28549"><ele>85.0</ele><time>2026-03-27T12:04:19.216Z</time></trkpt><trkpt lat="40.9028067" lon="14.2854683"><ele>84.66666666666667</ele><time>2026-03-27T12:04:21.214Z</time></trkpt><trkpt lat="40.9028783" lon="14.2854467"><ele>84.33333333333333</ele><time>2026-03-27T12:04:23.214Z</time></trkpt><trkpt lat="40.9029517" lon="14.2854233"><ele>84.0</ele><time>2026-03-27T12:04:25.215Z</time></trkpt><trkpt lat="40.9030183" lon="14.2853983"><ele>84.0</ele><time>2026-03-27T12:04:27.214Z</time></trkpt><trkpt lat="40.9030983" lon="14.285365"><ele>84.0</ele><time>2026-03-27T12:04:29.214Z</time></trkpt><trkpt lat="40.903175" lon="14.2853433"><ele>84.0</ele><time>2026-03-27T12:04:31.214Z</time></trkpt><trkpt lat="40.9032517" lon="14.2853333"><ele>84.0</ele><time>2026-03-27T12:04:33.213Z</time></trkpt><trkpt lat="40.9033233" lon="14.2853267"><ele>84.0</ele><time>2026-03-27T12:04:35.215Z</time></trkpt><trkpt lat="40.9033967" lon="14.28531"><ele>84.0</ele><time>2026-03-27T12:04:37.213Z</time></trkpt><trkpt lat="40.9034667" lon="14.285305"><ele>83.33333333333333</ele><time>2026-03-27T12:04:40.214Z</time></trkpt><trkpt lat="40.9035467" lon="14.285315"><ele>82.66666666666667</ele><time>2026-03-27T12:04:45.213Z</time></trkpt><trkpt lat="40.9036283" lon="14.2853083"><ele>82.0</ele><time>2026-03-27T12:04:49.214Z</time></trkpt><trkpt lat="40.9036817" lon="14.28526"><ele>81.33333333333334</ele><time>2026-03-27T12:04:51.214Z</time></trkpt><trkpt lat="40.9037767" lon="14.2852317"><ele>80.66666666666667</ele><time>2026-03-27T12:04:54.214Z</time></trkpt><trkpt lat="40.9038583" lon="14.2852067"><ele>80.0</ele><time>2026-03-27T12:04:56.213Z</time></trkpt><trkpt lat="40.9039267" lon="14.2851883"><ele>80.0</ele><time>2026-03-27T12:04:58.213Z</time></trkpt><trkpt lat="40.9040133" lon="14.2851967"><ele>80.0</ele><time>2026-03-27T12:05:01.213Z</time></trkpt><trkpt lat="40.90408" lon="14.285215"><ele>80.0</ele><time>2026-03-27T12:05:04.215Z</time></trkpt><trkpt lat="40.9040267" lon="14.28526"><ele>80.0</ele><time>2026-03-27T12:05:10.213Z</time></trkpt><trkpt lat="40.903945" lon="14.2852917"><ele>80.0</ele><time>2026-03-27T12:05:13.213Z</time></trkpt><trkpt lat="40.903875" lon="14.2853167"><ele>80.0</ele><time>2026-03-27T12:05:15.215Z</time></trkpt><trkpt lat="40.9038117" lon="14.285345"><ele>80.0</ele><time>2026-03-27T12:05:17.214Z</time></trkpt><trkpt lat="40.9037417" lon="14.2853633"><ele>80.0</ele><time>2026-03-27T12:05:19.214Z</time></trkpt><trkpt lat="40.9036667" lon="14.2853917"><ele>80.0</ele><time>2026-03-27T12:05:21.215Z</time></trkpt><trkpt lat="40.9035983" lon="14.285415"><ele>80.0</ele><time>2026-03-27T12:05:23.214Z</time></trkpt><trkpt lat="40.9035" lon="14.2854333"><ele>80.0</ele><time>2026-03-27T12:05:26.214Z</time></trkpt><trkpt lat="40.9034183" lon="14.2854483"><ele>80.0</ele><time>2026-03-27T12:05:28.214Z</time></trkpt><trkpt lat="40.9033417" lon="14.285465"><ele>80.0</ele><time>2026-03-27T12:05:30.215Z</time></trkpt><trkpt lat="40.903275" lon="14.2854717"><ele>80.66666666666667</ele><time>2026-03-27T12:05:32.214Z</time></trkpt><trkpt lat="40.90319" lon="14.2855017"><ele>81.33333333333334</ele><time>2026-03-27T12:05:35.213Z</time></trkpt><trkpt lat="40.9031233" lon="14.28545"><ele>82.0</ele><time>2026-03-27T12:05:38.214Z</time></trkpt><trkpt lat="40.903055" lon="14.2854883"><ele>82.66666666666667</ele><time>2026-03-27T12:05:44.215Z</time></trkpt><trkpt lat="40.9029533" lon="14.28553"><ele>83.33333333333333</ele><time>2026-03-27T12:05:47.214Z</time></trkpt><trkpt lat="40.9028633" lon="14.2855667"><ele>84.0</ele><time>2026-03-27T12:05:49.214Z</time></trkpt><trkpt lat="40.9027667" lon="14.28561"><ele>84.16666666666667</ele><time>2026-03-27T12:05:51.214Z</time></trkpt><trkpt lat="40.90268" lon="14.2856417"><ele>84.33333333333333</ele><time>2026-03-27T12:05:53.215Z</time></trkpt><trkpt lat="40.9026183" lon="14.2856683"><ele>84.5</ele><time>2026-03-27T12:05:55.213Z</time></trkpt><trkpt lat="40.9025517" lon="14.2856967"><ele>84.66666666666666</ele><time>2026-03-27T12:05:57.214Z</time></trkpt><trkpt lat="40.9024817" lon="14.2857617"><ele>84.83333333333333</ele><time>2026-03-27T12:06:00.214Z</time></trkpt><trkpt lat="40.9024117" lon="14.2857983"><ele>85.0</ele><time>2026-03-27T12:06:02.215Z</time></trkpt><trkpt lat="40.90231" lon="14.2858167"><ele>85.16666666666666</ele><time>2026-03-27T12:06:04.213Z</time></trkpt><trkpt lat="40.90224" lon="14.285825"><ele>85.33333333333333</ele><time>2026-03-27T12:06:05.214Z</time></trkpt><trkpt lat="40.9021417" lon="14.2858567"><ele>85.5</ele><time>2026-03-27T12:06:07.215Z</time></trkpt><trkpt lat="40.9020617" lon="14.2858983"><ele>85.66666666666667</ele><time>2026-03-27T12:06:09.213Z</time></trkpt><trkpt lat="40.9019933" lon="14.2859183"><ele>85.83333333333334</ele><time>2026-03-27T12:06:11.215Z</time></trkpt><trkpt lat="40.9019233" lon="14.2859417"><ele>86.0</ele><time>2026-03-27T12:06:13.214Z</time></trkpt><trkpt lat="40.9018417" lon="14.28596"><ele>86.0</ele><time>2026-03-27T12:06:15.214Z</time></trkpt><trkpt lat="40.9017533" lon="14.2859767"><ele>86.0</ele><time>2026-03-27T12:06:17.215Z</time></trkpt><trkpt lat="40.9016567" lon="14.2859933"><ele>86.0</ele><time>2026-03-27T12:06:19.215Z</time></trkpt><trkpt lat="40.9015533" lon="14.2860067"><ele>86.0</ele><time>2026-03-27T12:06:21.215Z</time></trkpt><trkpt lat="40.9014467" lon="14.2860333"><ele>86.0</ele><time>2026-03-27T12:06:23.213Z</time></trkpt><trkpt lat="40.90134" lon="14.2860517"><ele>86.0</ele><time>2026-03-27T12:06:25.215Z</time></trkpt><trkpt lat="40.901225" lon="14.2860717"><ele>86.0</ele><time>2026-03-27T12:06:27.214Z</time></trkpt><trkpt lat="40.901105" lon="14.2860967"><ele>86.0</ele><time>2026-03-27T12:06:29.214Z</time></trkpt><trkpt lat="40.9009967" lon="14.2861267"><ele>86.0</ele><time>2026-03-27T12:06:31.215Z</time></trkpt><trkpt lat="40.9008833" lon="14.2861533"><ele>86.0</ele><time>2026-03-27T12:06:33.214Z</time></trkpt><trkpt lat="40.900775" lon="14.2861783"><ele>86.0</ele><time>2026-03-27T12:06:35.214Z</time></trkpt><trkpt lat="40.9006667" lon="14.286195"><ele>86.0</ele><time>2026-03-27T12:06:37.214Z</time></trkpt><trkpt lat="40.9005567" lon="14.286205"><ele>86.0</ele><time>2026-03-27T12:06:39.214Z</time></trkpt><trkpt lat="40.9004533" lon="14.2862"><ele>86.0</ele><time>2026-03-27T12:06:41.215Z</time></trkpt><trkpt lat="40.9003567" lon="14.2861967"><ele>86.0</ele><time>2026-03-27T12:06:43.215Z</time></trkpt><trkpt lat="40.9002633" lon="14.2861883"><ele>86.0</ele><time>2026-03-27T12:06:45.215Z</time></trkpt><trkpt lat="40.9001817" lon="14.2861783"><ele>86.0</ele><time>2026-03-27T12:06:47.214Z</time></trkpt><trkpt lat="40.90011" lon="14.2861517"><ele>86.0</ele><time>2026-03-27T12:06:49.214Z</time></trkpt><trkpt lat="40.900025" lon="14.2861367"><ele>86.0</ele><time>2026-03-27T12:06:51.214Z</time></trkpt><trkpt lat="40.89993" lon="14.2861017"><ele>86.0</ele><time>2026-03-27T12:06:53.216Z</time></trkpt><trkpt lat="40.899835" lon="14.2860617"><ele>85.6</ele><time>2026-03-27T12:06:55.215Z</time></trkpt><trkpt lat="40.89974" lon="14.2860467"><ele>85.19999999999999</ele><time>2026-03-27T12:06:57.213Z</time></trkpt><trkpt lat="40.8996433" lon="14.2860183"><ele>84.80000000000001</ele><time>2026-03-27T12:06:59.216Z</time></trkpt><trkpt lat="40.8995533" lon="14.2859583"><ele>84.4</ele><time>2026-03-27T12:07:01.216Z</time></trkpt><trkpt lat="40.8994667" lon="14.2859117"><ele>84.0</ele><time>2026-03-27T12:07:03.215Z</time></trkpt><trkpt lat="40.8993933" lon="14.28585"><ele>84.0</ele><time>2026-03-27T12:07:05.213Z</time></trkpt><trkpt lat="40.8993267" lon="14.2857867"><ele>84.0</ele><time>2026-03-27T12:07:07.215Z</time></trkpt><trkpt lat="40.899255" lon="14.2857283"><ele>84.0</ele><time>2026-03-27T12:07:09.214Z</time></trkpt><trkpt lat="40.8991967" lon="14.285695"><ele>84.0</ele><time>2026-03-27T12:07:11.214Z</time></trkpt><trkpt lat="40.8991417" lon="14.2856183"><ele>84.0</ele><time>2026-03-27T12:07:14.214Z</time></trkpt><trkpt lat="40.89907" lon="14.2855583"><ele>84.0</ele><time>2026-03-27T12:07:16.215Z</time></trkpt><trkpt lat="40.8989783" lon="14.2855033"><ele>83.80000000000001</ele><time>2026-03-27T12:07:18.213Z</time></trkpt><trkpt lat="40.8988817" lon="14.2854483"><ele>83.60000000000001</ele><time>2026-03-27T12:07:20.212Z</time></trkpt><trkpt lat="40.8987833" lon="14.285405"><ele>83.4</ele><time>2026-03-27T12:07:22.214Z</time></trkpt><trkpt lat="40.8986967" lon="14.28537"><ele>83.2</ele><time>2026-03-27T12:07:24.211Z</time></trkpt><trkpt lat="40.898625" lon="14.2853267"><ele>83.0</ele><time>2026-03-27T12:07:26.21Z</time></trkpt><trkpt lat="40.8985333" lon="14.2852533"><ele>83.0</ele><time>2026-03-27T12:07:28.214Z</time></trkpt><trkpt lat="40.8984633" lon="14.2851867"><ele>83.0</ele><time>2026-03-27T12:07:30.212Z</time></trkpt><trkpt lat="40.89839" lon="14.2851067"><ele>83.0</ele><time>2026-03-27T12:07:32.212Z</time></trkpt><trkpt lat="40.89834" lon="14.28502"><ele>83.0</ele><time>2026-03-27T12:07:34.213Z</time></trkpt><trkpt lat="40.8982883" lon="14.2849033"><ele>83.0</ele><time>2026-03-27T12:07:36.213Z</time></trkpt><trkpt lat="40.8982317" lon="14.2848033"><ele>82.16666666666667</ele><time>2026-03-27T12:07:38.212Z</time></trkpt><trkpt lat="40.8981633" lon="14.2847133"><ele>81.33333333333334</ele><time>2026-03-27T12:07:40.214Z</time></trkpt><trkpt lat="40.8981183" lon="14.2846167"><ele>80.5</ele><time>2026-03-27T12:07:42.213Z</time></trkpt><trkpt lat="40.8980667" lon="14.2845367"><ele>79.66666666666667</ele><time>2026-03-27T12:07:44.214Z</time></trkpt><trkpt lat="40.8979883" lon="14.2845383"><ele>78.83333333333333</ele><time>2026-03-27T12:07:47.215Z</time></trkpt><trkpt lat="40.8979317" lon="14.2845933"><ele>78.0</ele><time>2026-03-27T12:07:50.211Z</time></trkpt><trkpt lat="40.8978767" lon="14.2846467"><ele>78.0</ele><time>2026-03-27T12:07:53.218Z</time></trkpt><trkpt lat="40.8978267" lon="14.2847267"><ele>78.0</ele><time>2026-03-27T12:07:56.214Z</time></trkpt><trkpt lat="40.8978" lon="14.2848067"><ele>78.0</ele><time>2026-03-27T12:07:59.212Z</time></trkpt><trkpt lat="40.897755" lon="14.2848867"><ele>78.0</ele><time>2026-03-27T12:08:02.212Z</time></trkpt><trkpt lat="40.8977067" lon="14.2849733"><ele>78.0</ele><time>2026-03-27T12:08:05.213Z</time></trkpt><trkpt lat="40.8976433" lon="14.2850633"><ele>78.0</ele><time>2026-03-27T12:08:08.211Z</time></trkpt><trkpt lat="40.8975767" lon="14.2851517"><ele>78.5</ele><time>2026-03-27T12:08:11.211Z</time></trkpt><trkpt lat="40.8975283" lon="14.28522"><ele>79.0</ele><time>2026-03-27T12:08:13.211Z</time></trkpt><trkpt lat="40.897475" lon="14.2852933"><ele>79.5</ele><time>2026-03-27T12:08:15.212Z</time></trkpt><trkpt lat="40.8974167" lon="14.2853833"><ele>80.0</ele><time>2026-03-27T12:08:17.215Z</time></trkpt><trkpt lat="40.8973567" lon="14.285475"><ele>80.5</ele><time>2026-03-27T12:08:19.213Z</time></trkpt><trkpt lat="40.8973033" lon="14.2855683"><ele>81.0</ele><time>2026-03-27T12:08:21.217Z</time></trkpt><trkpt lat="40.8972567" lon="14.2856467"><ele>81.16666666666667</ele><time>2026-03-27T12:08:23.214Z</time></trkpt><trkpt lat="40.897215" lon="14.285715"><ele>81.33333333333333</ele><time>2026-03-27T12:08:25.211Z</time></trkpt><trkpt lat="40.89717" lon="14.2857917"><ele>81.5</ele><time>2026-03-27T12:08:27.219Z</time></trkpt><trkpt lat="40.8971167" lon="14.285865"><ele>81.66666666666666</ele><time>2026-03-27T12:08:29.214Z</time></trkpt><trkpt lat="40.8970533" lon="14.2859433"><ele>81.83333333333333</ele><time>2026-03-27T12:08:32.211Z</time></trkpt><trkpt lat="40.8970167" lon="14.2860167"><ele>82.0</ele><time>2026-03-27T12:08:34.21Z</time></trkpt><trkpt lat="40.8969533" lon="14.2861133"><ele>82.0</ele><time>2026-03-27T12:08:37.211Z</time></trkpt><trkpt lat="40.8969" lon="14.2861733"><ele>82.0</ele><time>2026-03-27T12:08:39.212Z</time></trkpt><trkpt lat="40.8968433" lon="14.2862633"><ele>82.0</ele><time>2026-03-27T12:08:42.213Z</time></trkpt><trkpt lat="40.8968067" lon="14.286355"><ele>82.0</ele><time>2026-03-27T12:08:44.212Z</time></trkpt><trkpt lat="40.8967367" lon="14.2863917"><ele>82.0</ele><time>2026-03-27T12:08:46.212Z</time></trkpt><trkpt lat="40.8966667" lon="14.2864133"><ele>82.0</ele><time>2026-03-27T12:08:48.211Z</time></trkpt><trkpt lat="40.896565" lon="14.2864117"><ele>81.6</ele><time>2026-03-27T12:08:51.223Z</time></trkpt><trkpt lat="40.8964817" lon="14.2863883"><ele>81.19999999999999</ele><time>2026-03-27T12:08:53.214Z</time></trkpt><trkpt lat="40.8963917" lon="14.286355"><ele>80.8</ele><time>2026-03-27T12:08:55.211Z</time></trkpt><trkpt lat="40.8963067" lon="14.2863333"><ele>80.4</ele><time>2026-03-27T12:08:57.217Z</time></trkpt><trkpt lat="40.8962033" lon="14.286305"><ele>80.0</ele><time>2026-03-27T12:08:59.212Z</time></trkpt><trkpt lat="40.8960867" lon="14.2862833"><ele>80.0</ele><time>2026-03-27T12:09:01.211Z</time></trkpt><trkpt lat="40.8960117" lon="14.28628"><ele>80.0</ele><time>2026-03-27T12:09:02.211Z</time></trkpt><trkpt lat="40.89591" lon="14.2862867"><ele>80.0</ele><time>2026-03-27T12:09:03.211Z</time></trkpt><trkpt lat="40.8958383" lon="14.2862817"><ele>80.0</ele><time>2026-03-27T12:09:04.211Z</time></trkpt><trkpt lat="40.8957667" lon="14.286265"><ele>80.0</ele><time>2026-03-27T12:09:05.212Z</time></trkpt><trkpt lat="40.89569" lon="14.2862483"><ele>80.0</ele><time>2026-03-27T12:09:06.212Z</time></trkpt><trkpt lat="40.895625" lon="14.2862383"><ele>79.66666666666667</ele><time>2026-03-27T12:09:07.212Z</time></trkpt><trkpt lat="40.8955567" lon="14.286235"><ele>79.33333333333334</ele><time>2026-03-27T12:09:08.212Z</time></trkpt><trkpt lat="40.8954817" lon="14.2862367"><ele>79.0</ele><time>2026-03-27T12:09:09.212Z</time></trkpt><trkpt lat="40.8954033" lon="14.28624"><ele>78.66666666666667</ele><time>2026-03-27T12:09:10.214Z</time></trkpt><trkpt lat="40.8953283" lon="14.2862383"><ele>78.33333333333333</ele><time>2026-03-27T12:09:11.215Z</time></trkpt><trkpt lat="40.8952617" lon="14.2862333"><ele>78.0</ele><time>2026-03-27T12:09:12.215Z</time></trkpt><trkpt lat="40.8951517" lon="14.286215"><ele>78.4</ele><time>2026-03-27T12:09:14.216Z</time></trkpt><trkpt lat="40.89504" lon="14.28621"><ele>78.8</ele><time>2026-03-27T12:09:16.212Z</time></trkpt><trkpt lat="40.89492" lon="14.2862133"><ele>79.2</ele><time>2026-03-27T12:09:18.215Z</time></trkpt><trkpt lat="40.8948017" lon="14.2861983"><ele>79.6</ele><time>2026-03-27T12:09:20.213Z</time></trkpt><trkpt lat="40.8947383" lon="14.2861917"><ele>80.0</ele><time>2026-03-27T12:09:21.213Z</time></trkpt><trkpt lat="40.89467" lon="14.28619"><ele>80.0</ele><time>2026-03-27T12:09:22.215Z</time></trkpt><trkpt lat="40.8945967" lon="14.28618"><ele>80.0</ele><time>2026-03-27T12:09:23.215Z</time></trkpt><trkpt lat="40.89453" lon="14.2861733"><ele>80.0</ele><time>2026-03-27T12:09:24.213Z</time></trkpt><trkpt lat="40.894405" lon="14.2861583"><ele>80.0</ele><time>2026-03-27T12:09:26.214Z</time></trkpt><trkpt lat="40.8942917" lon="14.2861367"><ele>80.0</ele><time>2026-03-27T12:09:28.215Z</time></trkpt><trkpt lat="40.8941683" lon="14.2861167"><ele>80.25</ele><time>2026-03-27T12:09:30.216Z</time></trkpt><trkpt lat="40.8940483" lon="14.286095"><ele>80.5</ele><time>2026-03-27T12:09:32.215Z</time></trkpt><trkpt lat="40.893935" lon="14.2860817"><ele>80.75</ele><time>2026-03-27T12:09:34.216Z</time></trkpt><trkpt lat="40.8938317" lon="14.2860667"><ele>81.0</ele><time>2026-03-27T12:09:36.215Z</time></trkpt><trkpt lat="40.89372" lon="14.28606"><ele>81.0</ele><time>2026-03-27T12:09:38.214Z</time></trkpt><trkpt lat="40.8936167" lon="14.286055"><ele>81.0</ele><time>2026-03-27T12:09:40.214Z</time></trkpt><trkpt lat="40.8935367" lon="14.2860567"><ele>81.0</ele><time>2026-03-27T12:09:42.216Z</time></trkpt><trkpt lat="40.893485" lon="14.28615"><ele>81.0</ele><time>2026-03-27T12:09:45.213Z</time></trkpt><trkpt lat="40.8935" lon="14.2862767"><ele>81.0</ele><time>2026-03-27T12:09:47.215Z</time></trkpt><trkpt lat="40.8935367" lon="14.286445"><ele>80.83333333333333</ele><time>2026-03-27T12:09:49.214Z</time></trkpt><trkpt lat="40.893565" lon="14.2865433"><ele>80.66666666666667</ele><time>2026-03-27T12:09:50.214Z</time></trkpt><trkpt lat="40.8935933" lon="14.2866483"><ele>80.5</ele><time>2026-03-27T12:09:51.214Z</time></trkpt><trkpt lat="40.8936233" lon="14.2867467"><ele>80.33333333333334</ele><time>2026-03-27T12:09:52.214Z</time></trkpt><trkpt lat="40.8936533" lon="14.2868467"><ele>80.16666666666667</ele><time>2026-03-27T12:09:53.215Z</time></trkpt><trkpt lat="40.8936817" lon="14.2869417"><ele>80.0</ele><time>2026-03-27T12:09:54.213Z</time></trkpt><trkpt lat="40.8937117" lon="14.2870267"><ele>80.0</ele><time>2026-03-27T12:09:55.213Z</time></trkpt><trkpt lat="40.8937383" lon="14.287105"><ele>80.0</ele><time>2026-03-27T12:09:56.214Z</time></trkpt><trkpt lat="40.89378" lon="14.2872533"><ele>80.0</ele><time>2026-03-27T12:09:58.215Z</time></trkpt><trkpt lat="40.8938233" lon="14.2873817"><ele>80.0</ele><time>2026-03-27T12:10:00.214Z</time></trkpt><trkpt lat="40.89387" lon="14.2875117"><ele>80.0</ele><time>2026-03-27T12:10:02.215Z</time></trkpt><trkpt lat="40.89391" lon="14.287635"><ele>80.0</ele><time>2026-03-27T12:10:04.214Z</time></trkpt><trkpt lat="40.8939267" lon="14.2877167"><ele>80.0</ele><time>2026-03-27T12:10:06.213Z</time></trkpt><trkpt lat="40.8937818" lon="14.2877969"><ele>80.0</ele><time>2026-03-27T12:11:00.744Z</time></trkpt><trkpt lat="40.8937567" lon="14.2879383"><ele>80.0</ele><time>2026-03-27T12:12:17.214Z</time></trkpt><trkpt lat="40.8937761" lon="14.2878041"><ele>80.0</ele><time>2026-03-27T12:12:31.282Z</time></trkpt><trkpt lat="40.89353" lon="14.2880933"><ele>80.0</ele><time>2026-03-27T12:16:23.212Z</time></trkpt><trkpt lat="40.893595" lon="14.2881417"><ele>80.0</ele><time>2026-03-27T12:16:40.216Z</time></trkpt><trkpt lat="40.8936817" lon="14.28804"><ele>80.0</ele><time>2026-03-27T12:17:22.215Z</time></trkpt><trkpt lat="40.89372" lon="14.288165"><ele>80.0</ele><time>2026-03-27T12:17:42.214Z</time></trkpt><trkpt lat="40.8937783" lon="14.288095"><ele>80.0</ele><time>2026-03-27T12:17:54.215Z</time></trkpt><trkpt lat="40.8937033" lon="14.28805"><ele>80.0</ele><time>2026-03-27T12:18:02.214Z</time></trkpt><trkpt lat="40.8937933" lon="14.288035"><ele>80.0</ele><time>2026-03-27T12:18:12.215Z</time></trkpt><trkpt lat="40.893885" lon="14.28804"><ele>80.0</ele><time>2026-03-27T12:18:18.213Z</time></trkpt><trkpt lat="40.8938983" lon="14.2879317"><ele>80.0</ele><time>2026-03-27T12:18:28.212Z</time></trkpt><trkpt lat="40.8939" lon="14.2877983"><ele>80.0</ele><time>2026-03-27T12:18:44.215Z</time></trkpt><trkpt lat="40.8938483" lon="14.28775"><ele>80.0</ele><time>2026-03-27T12:18:47.215Z</time></trkpt><trkpt lat="40.8938367" lon="14.2876667"><ele>80.0</ele><time>2026-03-27T12:19:09.214Z</time></trkpt><trkpt lat="40.8937633" lon="14.287655"><ele>80.0</ele><time>2026-03-27T12:19:10.215Z</time></trkpt><trkpt lat="40.8936767" lon="14.2876383"><ele>80.0</ele><time>2026-03-27T12:19:16.214Z</time></trkpt><trkpt lat="40.8935233" lon="14.2875583"><ele>80.0</ele><time>2026-03-27T12:19:33.214Z</time></trkpt><trkpt lat="40.8934617" lon="14.287525"><ele>80.0</ele><time>2026-03-27T12:19:35.214Z</time></trkpt><trkpt lat="40.8934083" lon="14.28747"><ele>80.0</ele><time>2026-03-27T12:19:37.215Z</time></trkpt><trkpt lat="40.8933583" lon="14.2875433"><ele>80.0</ele><time>2026-03-27T12:19:51.213Z</time></trkpt><trkpt lat="40.8934083" lon="14.2876667"><ele>80.0</ele><time>2026-03-27T12:20:07.215Z</time></trkpt><trkpt lat="40.8934867" lon="14.2876433"><ele>80.0</ele><time>2026-03-27T12:20:25.215Z</time></trkpt><trkpt lat="40.8936517" lon="14.2875733"><ele>80.0</ele><time>2026-03-27T12:20:28.214Z</time></trkpt><trkpt lat="40.8937483" lon="14.2875417"><ele>80.0</ele><time>2026-03-27T12:20:29.214Z</time></trkpt><trkpt lat="40.893825" lon="14.2875417"><ele>80.0</ele><time>2026-03-27T12:20:31.214Z</time></trkpt><trkpt lat="40.8939067" lon="14.287475"><ele>80.0</ele><time>2026-03-27T12:20:39.214Z</time></trkpt><trkpt lat="40.893975" lon="14.2875067"><ele>80.0</ele><time>2026-03-27T12:20:53.214Z</time></trkpt><trkpt lat="40.893885" lon="14.287595"><ele>80.0</ele><time>2026-03-27T12:21:38.212Z</time></trkpt><trkpt lat="40.8937833" lon="14.2876217"><ele>80.0</ele><time>2026-03-27T12:21:39.214Z</time></trkpt><trkpt lat="40.893695" lon="14.2877017"><ele>80.0</ele><time>2026-03-27T12:21:49.214Z</time></trkpt><trkpt lat="40.8935033" lon="14.2876333"><ele>80.0</ele><time>2026-03-27T12:23:04.214Z</time></trkpt><trkpt lat="40.8935317" lon="14.2877083"><ele>80.0</ele><time>2026-03-27T12:23:07.21Z</time></trkpt><trkpt lat="40.8936167" lon="14.287765"><ele>80.0</ele><time>2026-03-27T12:23:16.214Z</time></trkpt><trkpt lat="40.8936733" lon="14.2877233"><ele>80.0</ele><time>2026-03-27T12:23:20.213Z</time></trkpt><trkpt lat="40.8937433" lon="14.2878233"><ele>80.0</ele><time>2026-03-27T12:23:57.215Z</time></trkpt><trkpt lat="40.8936483" lon="14.287915"><ele>80.0</ele><time>2026-03-27T12:24:13.213Z</time></trkpt><trkpt lat="40.8935667" lon="14.2879317"><ele>80.0</ele><time>2026-03-27T12:24:32.213Z</time></trkpt><trkpt lat="40.8935683" lon="14.2878417"><ele>80.0</ele><time>2026-03-27T12:25:06.214Z</time></trkpt><trkpt lat="40.893655" lon="14.2879383"><ele>80.0</ele><time>2026-03-27T12:25:33.212Z</time></trkpt><trkpt lat="40.89359" lon="14.2879633"><ele>80.0</ele><time>2026-03-27T12:25:52.213Z</time></trkpt><trkpt lat="40.89367" lon="14.2879033"><ele>80.0</ele><time>2026-03-27T12:26:35.213Z</time></trkpt><trkpt lat="40.8937367" lon="14.2878583"><ele>80.0</ele><time>2026-03-27T12:26:42.215Z</time></trkpt><trkpt lat="40.8936883" lon="14.2879183"><ele>80.0</ele><time>2026-03-27T12:27:09.214Z</time></trkpt><trkpt lat="40.8938" lon="14.2878733"><ele>80.0</ele><time>2026-03-27T12:27:29.214Z</time></trkpt><trkpt lat="40.8938617" lon="14.2878333"><ele>80.0</ele><time>2026-03-27T12:27:33.214Z</time></trkpt><trkpt lat="40.893743" lon="14.2878487"><ele>80.0</ele><time>2026-03-27T12:27:42.473Z</time></trkpt></trkseg></trk></gpx>